Time,TemperatureF,DewpointF,PressureIn,WindDirection,WindDirectionDegrees,WindSpeedMPH,WindSpeedGustMPH,Humidity,HourlyPrecipIn,Conditions,Clouds,dailyrainin,SoftwareType,DateUTC
2014-12-21 00:04:00,55.0,50.0,29.50,South,180,15.0,15.0,83,0.00,RA,FEW,0.00,WeatherDisplay:10.37,2014-12-21 08:04:00,
2014-12-21 00:09:00,55.0,50.0,29.50,SW,225,15.0,15.0,83,0.00,RA,FEW,0.00,WeatherDisplay:10.37,2014-12-21 08:09:00,
2014-12-21 00:14:00,55.0,50.0,29.50,SW,225,15.0,15.0,83,0.00,CLR,FEW,0.00,WeatherDisplay:10.37,2014-12-21 08:14:00,
2014-12-21 00:19:00,55.8,50.7,29.50,SW,225,15.0,15.0,83,0.00,CLR,FEW,0.00,WeatherDisplay:10.37,2014-12-21 08:19:00,
2014-12-21 00:24:00,55.9,50.5,29.48,SW,225,15.0,15.0,82,0.00,CLR,FEW,0.00,WeatherDisplay:10.37,2014-12-21 08:24:00,
2014-12-21 00:29:00,56.3,50.9,29.48,SW,225,17.3,17.3,82,0.00,CLR,FEW,0.00,WeatherDisplay:10.37,2014-12-21 08:29:00,
2014-12-21 00:34:00,56.5,50.7,29.48,SSW,202,10.4,10.8,81,0.00,CLR,FEW,0.00,WeatherDisplay:10.37,2014-12-21 08:34:00,
2014-12-21 00:39:00,56.5,50.7,29.48,SSW,202,18.4,18.4,81,0.00,CLR,FEW,0.00,WeatherDisplay:10.37,2014-12-21 08:39:00,
2014-12-21 00:44:00,56.5,50.7,29.49,WSW,248,18.4,18.4,81,0.00,CLR,FEW,0.00,WeatherDisplay:10.37,2014-12-21 08:44:00,
2014-12-21 00:49:00,56.5,50.7,29.49,WSW,248,11.5,12.1,81,0.00,CLR,FEW,0.00,WeatherDisplay:10.37,2014-12-21 08:49:00,
2014-12-21 00:54:00,56.7,50.9,29.49,SW,225,18.4,18.4,81,0.00,CLR,FEW,0.00,WeatherDisplay:10.37,2014-12-21 08:54:00,
2014-12-21 00:59:00,56.8,51.1,29.49,SSW,202,16.1,16.1,81,0.00,CLR,FEW,0.00,WeatherDisplay:10.37,2014-12-21 08:59:00,
2014-12-21 01:04:00,57.0,51.2,29.49,WSW,248,15.0,15.0,81,0.00,CLR,FEW,0.00,WeatherDisplay:10.37,2014-12-21 09:04:00,
2014-12-21 01:09:00,57.0,51.2,29.49,SW,225,11.5,11.5,81,0.00,CLR,FEW,0.00,WeatherDisplay:10.37,2014-12-21 09:09:00,
2014-12-21 01:14:00,57.2,51.4,29.49,West,270,18.4,18.4,81,0.00,CLR,FEW,0.00,WeatherDisplay:10.37,2014-12-21 09:14:00,
2014-12-21 01:19:00,57.4,51.3,29.49,WSW,248,13.8,13.8,80,0.00,CLR,FEW,0.00,WeatherDisplay:10.37,2014-12-21 09:19:00,
2014-12-21 01:24:00,57.2,51.1,29.51,WSW,248,17.3,17.3,80,0.00,CLR,FEW,0.00,WeatherDisplay:10.37,2014-12-21 09:24:00,
2014-12-21 01:29:00,57.2,51.1,29.51,WSW,248,21.9,21.9,80,0.00,CLR,FEW,0.00,WeatherDisplay:10.37,2014-12-21 09:29:00,
2014-12-21 01:34:00,57.4,51.3,29.51,WSW,248,10.4,10.7,80,0.00,CLR,FEW,0.00,WeatherDisplay:10.37,2014-12-21 09:34:00,
2014-12-21 01:39:00,57.4,51.3,29.51,WSW,248,15.0,15.0,80,0.00,CLR,FEW,0.00,WeatherDisplay:10.37,2014-12-21 09:39:00,
2014-12-21 01:44:00,57.2,51.1,29.55,SSE,158,16.1,16.1,80,0.00,CLR,FEW,0.00,WeatherDisplay:10.37,2014-12-21 09:44:00,
2014-12-21 01:49:00,57.4,51.3,29.55,SSW,202,17.3,17.3,80,0.00,CLR,FEW,0.00,WeatherDisplay:10.37,2014-12-21 09:49:00,
2014-12-21 01:54:00,57.2,51.1,29.55,WSW,248,13.8,13.8,80,0.00,CLR,FEW,0.00,WeatherDisplay:10.37,2014-12-21 09:54:00,
2014-12-21 01:59:00,57.2,51.1,29.55,SW,225,17.3,17.3,80,0.00,CLR,FEW,0.00,WeatherDisplay:10.37,2014-12-21 09:59:00,
2014-12-21 02:04:00,57.2,51.1,29.55,SW,225,15.0,15.0,80,0.00,CLR,FEW,0.00,WeatherDisplay:10.37,2014-12-21 10:04:00,
2014-12-21 02:09:00,57.0,50.9,29.55,SW,225,13.8,13.8,80,0.00,CLR,FEW,0.00,WeatherDisplay:10.37,2014-12-21 10:09:00,
2014-12-21 02:14:00,57.2,51.1,29.55,SW,225,12.7,12.7,80,0.00,CLR,FEW,0.00,WeatherDisplay:10.37,2014-12-21 10:14:00,
2014-12-21 02:19:00,57.2,51.1,29.55,West,270,10.4,10.4,80,0.00,CLR,FEW,0.00,WeatherDisplay:10.37,2014-12-21 10:19:00,
2014-12-21 02:24:00,57.2,51.1,29.57,WSW,248,15.0,15.0,80,0.00,CLR,FEW,0.00,WeatherDisplay:10.37,2014-12-21 10:24:00,
2014-12-21 02:29:00,57.4,51.3,29.57,SW,225,8.1,8.9,80,0.00,CLR,FEW,0.00,WeatherDisplay:10.37,2014-12-21 10:29:00,
2014-12-21 02:34:00,57.6,51.4,29.57,WSW,248,18.4,18.4,80,0.00,CLR,FEW,0.00,WeatherDisplay:10.37,2014-12-21 10:34:00,
2014-12-21 02:39:00,57.6,51.1,29.57,SW,225,19.6,19.6,79,0.00,CLR,FEW,0.00,WeatherDisplay:10.37,2014-12-21 10:39:00,
2014-12-21 02:44:00,57.4,50.9,29.58,SSE,158,11.5,11.5,79,0.00,CLR,FEW,0.00,WeatherDisplay:10.37,2014-12-21 10:44:00,
2014-12-21 02:49:00,57.4,50.9,29.58,SW,225,10.4,10.4,79,0.00,CLR,FEW,0.00,WeatherDisplay:10.37,2014-12-21 10:49:00,
2014-12-21 02:54:00,57.4,50.9,29.58,SW,225,12.7,12.7,79,0.00,CLR,FEW,0.00,WeatherDisplay:10.37,2014-12-21 10:54:00,
2014-12-21 02:59:00,57.2,50.4,29.58,SW,225,12.7,12.7,78,0.00,CLR,FEW,0.00,WeatherDisplay:10.37,2014-12-21 10:59:00,
2014-12-21 03:04:00,57.2,50.1,29.62,ESE,112,12.7,12.7,77,0.00,CLR,FEW,0.00,WeatherDisplay:10.37,2014-12-21 11:04:00,
2014-12-21 03:09:00,57.4,50.2,29.62,SW,225,10.4,10.4,77,0.00,CLR,FEW,0.00,WeatherDisplay:10.37,2014-12-21 11:09:00,
2014-12-21 03:14:00,57.2,49.7,29.62,SW,225,10.4,10.4,76,0.00,CLR,FEW,0.00,WeatherDisplay:10.37,2014-12-21 11:14:00,
2014-12-21 03:19:00,57.2,49.0,29.62,WNW,292,5.8,5.8,74,0.00,CLR,FEW,0.00,WeatherDisplay:10.37,2014-12-21 11:19:00,
2014-12-21 03:25:00,57.4,48.8,29.62,WSW,248,9.2,9.2,73,0.00,CLR,FEW,0.00,WeatherDisplay:10.37,2014-12-21 11:25:00,
2014-12-21 03:30:00,57.0,48.4,29.62,WNW,292,3.5,4.6,73,0.00,CLR,FEW,0.00,WeatherDisplay:10.37,2014-12-21 11:30:00,
2014-12-21 03:35:00,57.0,48.4,29.62,West,270,5.8,5.8,73,0.00,CLR,FEW,0.00,WeatherDisplay:10.37,2014-12-21 11:35:00,
2014-12-21 03:40:00,56.7,47.7,29.62,WSW,253,6.0,13.0,72,0.00,CLR,FEW,0.00,WeatherDisplay:10.37,2014-12-21 11:40:00,
2014-12-21 03:45:00,56.7,47.4,29.63,SW,225,9.2,9.2,71,0.00,CLR,FEW,0.00,WeatherDisplay:10.37,2014-12-21 11:45:00,
2014-12-21 03:50:00,56.7,47.0,29.63,SW,235,8.0,16.0,70,0.00,CLR,FEW,0.00,WeatherDisplay:10.37,2014-12-21 11:50:00,
2014-12-21 03:55:00,56.7,47.0,29.63,WSW,248,11.5,11.5,70,0.00,CLR,FEW,0.00,WeatherDisplay:10.37,2014-12-21 11:55:00,
2014-12-21 04:00:00,56.5,46.8,29.63,WSW,243,7.0,12.0,70,0.00,CLR,FEW,0.00,WeatherDisplay:10.37,2014-12-21 12:00:00,
2014-12-21 04:05:00,56.3,46.6,29.65,WSW,248,10.4,10.4,70,0.00,CLR,FEW,0.00,WeatherDisplay:10.37,2014-12-21 12:05:00,
2014-12-21 04:10:00,56.3,46.6,29.65,WSW,257,6.0,10.0,70,0.00,CLR,FEW,0.00,WeatherDisplay:10.37,2014-12-21 12:10:00,
2014-12-21 04:15:00,55.9,46.3,29.65,WSW,248,8.1,8.1,70,0.00,CLR,FEW,0.00,WeatherDisplay:10.37,2014-12-21 12:15:00,
2014-12-21 04:20:00,55.9,46.3,29.65,SW,230,6.0,8.0,70,0.00,CLR,FEW,0.00,WeatherDisplay:10.37,2014-12-21 12:20:00,
2014-12-21 04:25:00,55.8,46.5,29.67,WSW,248,7.0,7.0,71,0.00,CLR,FEW,0.00,WeatherDisplay:10.37,2014-12-21 12:25:00,
2014-12-21 04:30:00,55.4,46.2,29.67,WSW,239,6.0,7.0,71,0.00,CLR,FEW,0.00,WeatherDisplay:10.37,2014-12-21 12:30:00,
2014-12-21 04:35:00,55.6,46.3,29.67,WSW,248,8.1,8.1,71,0.00,CLR,FEW,0.00,WeatherDisplay:10.37,2014-12-21 12:35:00,
2014-12-21 04:40:00,55.2,46.3,29.67,WSW,248,10.4,10.4,72,0.00,CLR,FEW,0.00,WeatherDisplay:10.37,2014-12-21 12:40:00,
2014-12-21 04:45:00,55.0,45.8,29.67,WSW,248,12.7,12.7,71,0.00,CLR,FEW,0.00,WeatherDisplay:10.37,2014-12-21 12:45:00,
2014-12-21 04:50:00,55.9,46.3,29.67,WSW,248,16.1,16.1,70,0.00,CLR,FEW,0.00,WeatherDisplay:10.37,2014-12-21 12:50:00,
2014-12-21 04:55:00,56.1,46.5,29.67,WSW,248,13.8,13.8,70,0.00,CLR,FEW,0.00,WeatherDisplay:10.37,2014-12-21 12:55:00,
2014-12-21 05:00:00,56.1,46.5,29.67,WNW,292,13.8,13.8,70,0.00,CLR,FEW,0.00,WeatherDisplay:10.37,2014-12-21 13:00:00,
2014-12-21 05:05:00,56.3,46.6,29.68,SW,225,13.8,13.8,70,0.00,CLR,FEW,0.00,WeatherDisplay:10.37,2014-12-21 13:05:00,
2014-12-21 05:10:00,55.9,46.3,29.68,WSW,248,5.8,6.6,70,0.00,CLR,FEW,0.00,WeatherDisplay:10.37,2014-12-21 13:10:00,
2014-12-21 05:15:00,55.9,46.3,29.68,WSW,248,8.1,8.1,70,0.00,CLR,FEW,0.00,WeatherDisplay:10.37,2014-12-21 13:15:00,
2014-12-21 05:20:00,55.8,46.1,29.68,WSW,248,6.9,6.9,70,0.00,CLR,FEW,0.00,WeatherDisplay:10.37,2014-12-21 13:20:00,
2014-12-21 05:25:00,55.6,46.3,29.68,WSW,248,3.9,4.7,71,0.00,CLR,FEW,0.00,WeatherDisplay:10.37,2014-12-21 13:25:00,
2014-12-21 05:30:00,55.2,46.0,29.68,SW,225,8.1,8.1,71,0.00,CLR,FEW,0.00,WeatherDisplay:10.37,2014-12-21 13:30:00,
2014-12-21 05:35:00,55.2,46.3,29.68,SW,225,8.6,8.6,72,0.00,CLR,FEW,0.00,WeatherDisplay:10.37,2014-12-21 13:35:00,
2014-12-21 05:40:00,54.9,46.0,29.68,WSW,248,6.9,6.9,72,0.00,CLR,FEW,0.00,WeatherDisplay:10.37,2014-12-21 13:40:00,
2014-12-21 05:45:00,54.9,46.0,29.71,SSW,202,10.4,10.4,72,0.00,CLR,FEW,0.00,WeatherDisplay:10.37,2014-12-21 13:45:00,
2014-12-21 05:50:00,54.5,45.7,29.71,SSW,202,5.8,5.9,72,0.00,CLR,FEW,0.00,WeatherDisplay:10.37,2014-12-21 13:50:00,
2014-12-21 05:55:00,54.3,45.5,29.71,SW,225,5.8,5.8,72,0.00,CLR,FEW,0.00,WeatherDisplay:10.37,2014-12-21 13:55:00,
2014-12-21 06:00:00,54.1,45.7,29.71,SW,225,6.9,6.9,73,0.00,CLR,FEW,0.00,WeatherDisplay:10.37,2014-12-21 14:00:00,
2014-12-21 06:05:00,54.1,45.7,29.73,SW,225,6.9,6.9,73,0.00,CLR,FEW,0.00,WeatherDisplay:10.37,2014-12-21 14:05:00,
2014-12-21 06:10:00,54.1,45.7,29.73,SW,225,6.9,6.9,73,0.00,CLR,FEW,0.00,WeatherDisplay:10.37,2014-12-21 14:10:00,
2014-12-21 06:15:00,53.8,45.0,29.73,West,270,6.9,6.9,72,0.00,CLR,FEW,0.00,WeatherDisplay:10.37,2014-12-21 14:15:00,
2014-12-21 06:20:00,53.8,45.0,29.73,WSW,248,9.2,9.2,72,0.00,CLR,FEW,0.00,WeatherDisplay:10.37,2014-12-21 14:20:00,
2014-12-21 06:25:00,53.8,45.0,29.74,WSW,248,6.9,7.0,72,0.00,CLR,FEW,0.00,WeatherDisplay:10.37,2014-12-21 14:25:00,
2014-12-21 06:30:00,54.0,45.1,29.74,WNW,292,9.2,9.2,72,0.00,CLR,FEW,0.00,WeatherDisplay:10.37,2014-12-21 14:30:00,
2014-12-21 06:35:00,53.8,44.6,29.74,WSW,248,9.2,9.2,71,0.00,CLR,FEW,0.00,WeatherDisplay:10.37,2014-12-21 14:35:00,
2014-12-21 06:40:00,53.8,44.6,29.74,SW,225,10.4,10.4,71,0.00,CLR,FEW,0.00,WeatherDisplay:10.37,2014-12-21 14:40:00,
2014-12-21 06:45:00,53.8,44.2,29.74,SW,225,11.5,11.5,70,0.00,CLR,FEW,0.00,WeatherDisplay:10.37,2014-12-21 14:45:00,
2014-12-21 06:50:00,53.8,43.8,29.74,WSW,248,9.2,9.2,69,0.00,CLR,FEW,0.00,WeatherDisplay:10.37,2014-12-21 14:50:00,
2014-12-21 06:55:00,54.1,44.2,29.74,SSW,202,11.5,11.5,69,0.00,CLR,FEW,0.00,WeatherDisplay:10.37,2014-12-21 14:55:00,
2014-12-21 07:00:00,54.0,43.6,29.74,WSW,248,12.7,12.7,68,0.00,CLR,FEW,0.00,WeatherDisplay:10.37,2014-12-21 15:00:00,
2014-12-21 07:05:00,54.3,43.6,29.76,SW,225,9.2,9.2,67,0.00,CLR,FEW,0.00,WeatherDisplay:10.37,2014-12-21 15:05:00,
2014-12-21 07:10:00,54.5,43.4,29.76,WSW,248,12.0,12.0,66,0.00,CLR,FEW,0.00,WeatherDisplay:10.37,2014-12-21 15:10:00,
2014-12-21 07:15:00,54.5,43.4,29.76,WNW,292,8.1,8.1,66,0.00,CLR,FEW,0.00,WeatherDisplay:10.37,2014-12-21 15:15:00,
2014-12-21 08:07:00,53.8,42.7,29.80,WNW,292,6.7,6.7,66,0.00,CLR,FEW,0.00,WeatherDisplay:10.37,2014-12-21 16:07:00,
2014-12-21 08:16:00,53.8,42.7,29.80,West,270,0.0,4.7,66,0.00,CLR,FEW,0.00,WeatherDisplay:10.37,2014-12-21 16:16:00,
2014-12-21 08:21:00,53.8,42.3,29.80,West,270,5.8,5.8,65,0.00,CLR,FEW,0.00,WeatherDisplay:10.37,2014-12-21 16:21:00,
2014-12-21 08:26:00,54.1,43.0,29.82,WSW,248,5.8,5.8,66,0.00,CLR,FEW,0.00,WeatherDisplay:10.37,2014-12-21 16:26:00,
2014-12-21 08:31:00,53.8,42.7,29.82,WSW,248,6.9,6.9,66,0.00,CLR,FEW,0.00,WeatherDisplay:10.37,2014-12-21 16:31:00,
2014-12-21 08:36:00,53.4,42.7,29.82,WSW,248,4.6,4.6,67,0.00,CLR,FEW,0.00,WeatherDisplay:10.37,2014-12-21 16:36:00,
2014-12-21 08:41:00,53.4,42.7,29.82,WSW,248,8.1,8.1,67,0.00,CLR,FEW,0.00,WeatherDisplay:10.37,2014-12-21 16:41:00,
2014-12-21 08:46:00,53.2,42.6,29.82,SW,225,5.8,5.8,67,0.00,CLR,FEW,0.00,WeatherDisplay:10.37,2014-12-21 16:46:00,
2014-12-21 08:51:00,53.4,42.7,29.82,SW,225,4.6,4.6,67,0.00,CLR,FEW,0.00,WeatherDisplay:10.37,2014-12-21 16:51:00,
2014-12-21 08:56:00,53.4,42.7,29.82,WSW,248,6.9,6.9,67,0.00,CLR,FEW,0.00,WeatherDisplay:10.37,2014-12-21 16:56:00,
2014-12-21 09:01:00,53.6,42.5,29.82,SSW,202,4.7,4.9,66,0.00,CLR,FEW,0.00,WeatherDisplay:10.37,2014-12-21 17:01:00,
2014-12-21 09:06:00,54.1,43.0,29.83,SW,225,5.8,5.8,66,0.00,CLR,FEW,0.00,WeatherDisplay:10.37,2014-12-21 17:06:00,
2014-12-21 09:11:00,54.3,43.2,29.83,SSW,202,4.6,4.6,66,0.00,CLR,FEW,0.00,WeatherDisplay:10.37,2014-12-21 17:11:00,
2014-12-21 09:16:00,54.3,42.8,29.83,SW,225,6.1,6.1,65,0.00,CLR,FEW,0.00,WeatherDisplay:10.37,2014-12-21 17:16:00,
2014-12-21 09:21:00,54.7,43.5,29.83,WSW,248,5.8,5.8,66,0.00,CLR,FEW,0.00,WeatherDisplay:10.37,2014-12-21 17:21:00,
2014-12-21 09:27:00,54.9,43.7,29.85,SW,225,5.8,5.8,66,0.00,CLR,FEW,0.00,WeatherDisplay:10.37,2014-12-21 17:27:00,
2014-12-21 09:32:00,54.9,43.7,29.85,WNW,292,3.5,3.8,66,0.00,CLR,FEW,0.00,WeatherDisplay:10.37,2014-12-21 17:32:00,
2014-12-21 09:37:00,54.9,43.3,29.85,WSW,248,8.1,8.1,65,0.00,CLR,FEW,0.00,WeatherDisplay:10.37,2014-12-21 17:37:00,
2014-12-21 09:42:00,54.9,43.3,29.85,SW,225,6.9,6.9,65,0.00,CLR,FEW,0.00,WeatherDisplay:10.37,2014-12-21 17:42:00,
2014-12-21 09:47:00,55.0,43.1,29.86,SW,225,10.4,10.4,64,0.00,CLR,FEW,0.00,WeatherDisplay:10.37,2014-12-21 17:47:00,
2014-12-21 09:52:00,55.0,43.1,29.86,SW,225,10.4,10.4,64,0.00,CLR,FEW,0.00,WeatherDisplay:10.37,2014-12-21 17:52:00,
2014-12-21 09:57:00,54.9,42.9,29.86,SSW,202,15.1,15.1,64,0.00,CLR,FEW,0.00,WeatherDisplay:10.37,2014-12-21 17:57:00,
2014-12-21 10:02:00,54.9,42.9,29.86,WSW,248,17.3,17.3,64,0.00,CLR,FEW,0.00,WeatherDisplay:10.37,2014-12-21 18:02:00,
2014-12-21 10:07:00,54.9,42.9,29.87,SW,225,14.6,14.6,64,0.00,CLR,FEW,0.00,WeatherDisplay:10.37,2014-12-21 18:07:00,
2014-12-21 10:12:00,54.9,42.9,29.87,SSW,202,13.8,13.8,64,0.00,CLR,FEW,0.00,WeatherDisplay:10.37,2014-12-21 18:12:00,
2014-12-21 10:17:00,55.0,42.7,29.87,WSW,248,12.2,12.2,63,0.00,CLR,FEW,0.00,WeatherDisplay:10.37,2014-12-21 18:17:00,
2014-12-21 10:22:00,55.0,42.7,29.87,SW,225,13.8,13.8,63,0.00,CLR,FEW,0.00,WeatherDisplay:10.37,2014-12-21 18:22:00,
2014-12-21 10:27:00,55.2,42.4,29.87,SW,225,9.2,9.2,62,0.00,CLR,FEW,0.00,WeatherDisplay:10.37,2014-12-21 18:27:00,
2014-12-21 10:32:00,55.4,42.2,29.87,West,270,15.0,15.0,61,0.00,CLR,FEW,0.00,WeatherDisplay:10.37,2014-12-21 18:32:00,
2014-12-21 10:37:00,55.6,42.3,29.87,WSW,248,17.3,17.3,61,0.00,CLR,FEW,0.00,WeatherDisplay:10.37,2014-12-21 18:37:00,
2014-12-21 10:42:00,55.8,42.9,29.87,WNW,292,13.8,13.8,62,0.00,CLR,FEW,0.00,WeatherDisplay:10.37,2014-12-21 18:42:00,
2014-12-21 10:47:00,55.9,43.1,29.90,SSW,202,9.2,9.2,62,0.00,CLR,FEW,0.00,WeatherDisplay:10.37,2014-12-21 18:47:00,
2014-12-21 10:52:00,55.8,42.9,29.90,SW,225,13.8,13.8,62,0.00,CLR,FEW,0.00,WeatherDisplay:10.37,2014-12-21 18:52:00,
2014-12-21 10:57:00,55.8,42.9,29.90,WSW,248,8.1,8.6,62,0.00,CLR,FEW,0.00,WeatherDisplay:10.37,2014-12-21 18:57:00,